createdAt,value
2023-04-18T00:00:18.293Z,11.32
2023-04-18T00:05:21.132Z,11.33
2023-04-18T00:10:23.159Z,11.32
2023-04-18T00:15:25.162Z,11.24
2023-04-18T00:20:27.172Z,11.22
2023-04-18T00:25:29.240Z,11.23
2023-04-18T00:30:31.158Z,11.21
2023-04-18T00:35:33.115Z,11.14
2023-04-18T00:40:35.100Z,11.16
2023-04-18T00:45:36.946Z,11.15
2023-04-18T00:50:38.903Z,11.18
2023-04-18T00:55:40.834Z,11.18
2023-04-18T01:00:42.790Z,11.20
2023-04-18T01:05:45.294Z,11.20
2023-04-18T01:10:47.443Z,11.19
2023-04-18T01:15:49.913Z,11.18
2023-04-18T01:20:52.943Z,11.16
2023-04-18T01:25:55.189Z,11.05
2023-04-18T01:30:57.134Z,10.94
2023-04-18T01:35:59.084Z,10.95
2023-04-18T01:41:01.002Z,10.92
2023-04-18T01:46:02.924Z,10.89
2023-04-18T01:51:05.193Z,10.76
2023-04-18T01:56:07.161Z,10.72
2023-04-18T02:01:09.130Z,10.73
2023-04-18T02:06:11.096Z,10.69
2023-04-18T02:11:12.956Z,10.74
2023-04-18T02:16:14.991Z,10.74
2023-04-18T02:21:36.897Z,10.65
2023-04-18T02:26:38.878Z,10.63
2023-04-18T02:31:41.260Z,10.64
2023-04-18T02:36:43.284Z,10.54
2023-04-18T02:41:45.122Z,10.49
2023-04-18T02:46:46.993Z,10.50
2023-04-18T02:51:48.917Z,10.52
2023-04-18T02:56:53.659Z,10.60
2023-04-18T03:01:55.642Z,10.66
2023-04-18T03:06:57.696Z,10.67
2023-04-18T03:11:59.601Z,10.71
2023-04-18T03:17:01.482Z,10.71
2023-04-18T03:22:03.516Z,10.76
2023-04-18T03:27:05.437Z,10.83
2023-04-18T03:32:07.376Z,10.88
2023-04-18T03:37:09.339Z,11.00
2023-04-18T03:42:11.218Z,11.15
2023-04-18T03:47:13.019Z,11.25
2023-04-18T03:52:14.936Z,11.20
2023-04-18T03:57:17.036Z,11.09
2023-04-18T04:02:19.138Z,11.41
2023-04-18T04:07:21.239Z,11.56
2023-04-18T04:12:23.192Z,11.58
2023-04-18T04:17:25.098Z,11.57
2023-04-18T04:22:27.064Z,11.50
2023-04-18T04:27:28.958Z,11.55
2023-04-18T04:32:31.296Z,11.61
2023-04-18T04:37:33.213Z,11.42
2023-04-18T04:42:35.541Z,11.66
2023-04-18T04:47:37.547Z,11.90
2023-04-18T04:52:56.076Z,12.20
2023-04-18T04:57:57.952Z,12.20
2023-04-18T05:03:00.033Z,12.23
2023-04-18T05:08:02.514Z,12.27
2023-04-18T05:13:04.775Z,12.38
2023-04-18T05:18:06.658Z,12.48
2023-04-18T05:23:08.637Z,12.39
2023-04-18T05:28:10.528Z,12.55
2023-04-18T05:33:12.392Z,12.79
2023-04-18T05:38:14.317Z,13.17
2023-04-18T05:43:16.183Z,13.46
2023-04-18T05:48:18.137Z,13.68
2023-04-18T05:53:19.966Z,13.88
2023-04-18T05:58:21.858Z,14.11
2023-04-18T06:03:24.105Z,17.69
2023-04-18T06:08:25.810Z,19.30
2023-04-18T06:13:27.627Z,23.07
2023-04-18T06:18:29.550Z,25.72
2023-04-18T06:23:31.209Z,22.82
2023-04-18T06:28:33.282Z,20.54
2023-04-18T06:33:35.990Z,21.32
2023-04-18T06:38:37.844Z,19.59
2023-04-18T06:43:42.542Z,18.69
2023-04-18T06:48:49.855Z,20.20
2023-04-18T06:53:52.958Z,24.91
2023-04-18T06:58:54.917Z,21.26
2023-04-18T07:03:56.819Z,19.44
2023-04-18T07:08:58.503Z,19.30
2023-04-18T07:14:00.302Z,19.91
2023-04-18T07:19:02.098Z,19.04
2023-04-18T07:24:04.060Z,18.27
2023-04-18T07:29:05.745Z,17.37
2023-04-18T07:34:07.534Z,17.56
2023-04-18T07:39:09.468Z,18.88
2023-04-18T07:44:11.435Z,20.26
2023-04-18T07:49:13.773Z,22.76
2023-04-18T07:54:16.000Z,22.00
2023-04-18T07:59:18.102Z,21.05
2023-04-18T08:04:20.209Z,19.58
2023-04-18T08:09:22.171Z,18.16
2023-04-18T08:14:24.050Z,17.25
2023-04-18T08:19:26.092Z,16.80
2023-04-18T08:24:28.019Z,16.46
2023-04-18T08:29:29.907Z,16.18
2023-04-18T08:34:33.798Z,15.85
2023-04-18T08:39:35.779Z,15.31
2023-04-18T08:44:37.712Z,14.75
2023-04-18T08:49:39.854Z,14.64
2023-04-18T08:54:42.132Z,14.85
2023-04-18T08:59:47.099Z,14.75
2023-04-18T09:04:50.328Z,14.99
2023-04-18T09:09:53.301Z,14.79
2023-04-18T09:15:15.939Z,15.00
2023-04-18T09:20:28.132Z,15.16
2023-04-18T09:25:44.971Z,15.13
2023-04-18T09:30:47.392Z,15.44
2023-04-18T09:35:49.313Z,15.44
2023-04-18T09:41:07.612Z,15.05
2023-04-18T09:46:09.609Z,14.98
2023-04-18T09:51:15.042Z,15.11
2023-04-18T09:56:27.919Z,14.99
2023-04-18T10:01:30.168Z,15.04
2023-04-18T10:06:35.367Z,14.71
2023-04-18T10:11:37.370Z,14.69
2023-04-18T10:16:39.496Z,14.38
2023-04-18T10:21:51.596Z,14.64
2023-04-18T10:26:53.472Z,14.63
2023-04-18T10:31:55.298Z,15.10
2023-04-18T10:37:03.987Z,15.17
2023-04-18T10:42:05.909Z,15.57
2023-04-18T10:47:07.723Z,15.37
2023-04-18T10:52:10.869Z,15.23
2023-04-18T10:57:13.607Z,14.95
2023-04-18T11:02:31.336Z,15.01
2023-04-18T11:07:39.340Z,15.10
2023-04-18T11:12:41.302Z,15.05
2023-04-18T11:17:43.536Z,14.89
2023-04-18T11:22:50.737Z,14.98
2023-04-18T11:27:52.582Z,15.35
2023-04-18T11:32:54.577Z,15.12
2023-04-18T11:37:56.666Z,15.10
2023-04-18T11:43:01.528Z,15.32
2023-04-18T11:48:03.601Z,15.57
2023-04-18T11:53:05.473Z,15.02
2023-04-18T11:58:07.396Z,14.97
2023-04-18T12:03:16.756Z,14.79
2023-04-18T12:08:19.956Z,14.97
2023-04-18T12:13:25.924Z,15.08
2023-04-18T12:18:28.073Z,15.10
2023-04-18T12:23:33.211Z,14.54
2023-04-18T12:28:35.485Z,14.62
2023-04-18T12:33:37.414Z,14.60
2023-04-18T12:38:39.395Z,14.84
2023-04-18T12:43:41.279Z,15.03
2023-04-18T12:48:43.198Z,15.00
2023-04-18T12:53:45.364Z,14.93
2023-04-18T12:58:47.311Z,14.62
2023-04-18T13:03:59.973Z,14.82
2023-04-18T13:09:10.596Z,15.14
2023-04-18T13:14:12.649Z,15.08
2023-04-18T13:19:15.018Z,14.51
2023-04-18T13:24:16.824Z,14.34
2023-04-18T13:29:18.602Z,14.47
2023-04-18T13:34:20.517Z,14.44
2023-04-18T13:39:22.360Z,14.29
2023-04-18T13:44:24.560Z,14.40
2023-04-18T13:49:26.742Z,14.30
2023-04-18T13:54:30.145Z,14.27
2023-04-18T13:59:32.278Z,14.23
2023-04-18T14:04:34.523Z,14.24
2023-04-18T14:09:36.609Z,14.06
2023-04-18T14:14:38.587Z,13.93
2023-04-18T14:19:40.425Z,13.81
2023-04-18T14:24:42.306Z,13.79
2023-04-18T14:29:44.348Z,13.61
2023-04-18T14:34:46.231Z,13.58
2023-04-18T14:39:48.157Z,13.66
2023-04-18T14:44:50.168Z,13.57
2023-04-18T14:49:52.113Z,13.52
2023-04-18T14:54:53.946Z,13.63
2023-04-18T14:59:56.314Z,13.61
2023-04-18T15:04:59.177Z,13.58
2023-04-18T15:10:01.260Z,13.39
2023-04-18T15:15:03.263Z,13.34
2023-04-18T15:20:06.629Z,13.38
2023-04-18T15:25:08.934Z,13.39
2023-04-18T15:30:11.110Z,13.29
2023-04-18T15:35:12.966Z,13.35
2023-04-18T15:40:15.713Z,13.35
2023-04-18T15:45:17.722Z,13.38
2023-04-18T15:50:19.722Z,13.33
2023-04-18T15:55:21.625Z,13.27
2023-04-18T16:00:23.529Z,13.17
2023-04-18T16:05:25.565Z,13.02
2023-04-18T16:10:27.625Z,13.01
2023-04-18T16:15:32.920Z,12.97
2023-04-18T16:20:34.984Z,12.92
2023-04-18T16:25:36.959Z,12.88
2023-04-18T16:30:38.945Z,12.95
2023-04-18T16:35:40.776Z,12.86
2023-04-18T16:40:42.925Z,12.83
2023-04-18T16:45:44.979Z,12.75
2023-04-18T16:50:46.903Z,12.70
2023-04-18T16:55:48.934Z,12.65
2023-04-18T17:00:50.912Z,12.58
2023-04-18T17:05:52.850Z,12.52
2023-04-18T17:10:55.140Z,12.47
2023-04-18T17:15:57.472Z,12.42
2023-04-18T17:20:59.561Z,12.36
2023-04-18T17:26:02.978Z,12.26
2023-04-18T17:31:05.035Z,12.29
2023-04-18T17:36:07.701Z,12.22
2023-04-18T17:41:09.561Z,12.22
2023-04-18T17:46:11.718Z,12.21
2023-04-18T17:51:13.598Z,12.11
2023-04-18T17:56:15.526Z,12.16
2023-04-18T18:01:18.486Z,12.19
2023-04-18T18:06:20.504Z,12.11
2023-04-18T18:11:22.380Z,12.07
2023-04-18T18:16:24.292Z,12.04
2023-04-18T18:21:26.208Z,12.01
2023-04-18T18:26:28.081Z,12.02
2023-04-18T18:31:29.994Z,11.94
2023-04-18T18:36:32.203Z,11.90
2023-04-18T18:41:34.095Z,11.83
2023-04-18T18:46:36.825Z,11.77
2023-04-18T18:51:38.723Z,11.70
2023-04-18T18:56:40.651Z,11.69
2023-04-18T19:01:42.613Z,11.68
2023-04-18T19:06:44.585Z,11.67
2023-04-18T19:11:46.587Z,11.66
2023-04-18T19:16:48.441Z,11.68
2023-04-18T19:21:50.359Z,11.64
2023-04-18T19:26:52.169Z,11.64
2023-04-18T19:31:54.235Z,11.61
2023-04-18T19:36:56.287Z,11.62
2023-04-18T19:41:58.228Z,11.61
2023-04-18T19:47:00.165Z,11.55
2023-04-18T19:52:02.053Z,11.55
2023-04-18T19:57:04.094Z,11.57
2023-04-18T20:02:06.682Z,11.50
2023-04-18T20:07:08.781Z,11.40
2023-04-18T20:12:10.706Z,11.19
2023-04-18T20:17:12.726Z,11.09
2023-04-18T20:22:14.582Z,11.03
2023-04-18T20:27:16.514Z,11.00
2023-04-18T20:32:18.449Z,10.91
2023-04-18T20:37:20.477Z,10.78
2023-04-18T20:42:22.347Z,10.71
2023-04-18T20:47:24.317Z,10.65
2023-04-18T20:52:26.310Z,10.61
2023-04-18T20:57:28.239Z,10.49
2023-04-18T21:02:30.199Z,10.47
2023-04-18T21:07:32.118Z,10.40
2023-04-18T21:12:34.014Z,10.38
2023-04-18T21:17:36.116Z,10.36
2023-04-18T21:22:38.148Z,10.40
2023-04-18T21:27:40.195Z,10.34
2023-04-18T21:32:42.173Z,10.33
2023-04-18T21:37:44.194Z,10.29
2023-04-18T21:42:47.678Z,10.31
2023-04-18T21:47:50.813Z,10.30
2023-04-18T21:52:52.840Z,10.26
2023-04-18T21:57:54.726Z,10.25
2023-04-18T22:02:56.778Z,10.23
2023-04-18T22:07:58.941Z,10.20
2023-04-18T22:13:02.783Z,10.22
2023-04-18T22:18:05.690Z,10.19
2023-04-18T22:23:08.318Z,10.15
2023-04-18T22:28:10.042Z,10.06
2023-04-18T22:33:11.917Z,10.05
2023-04-18T22:38:13.844Z,10.00
2023-04-18T22:43:15.810Z,9.99
2023-04-18T22:48:17.788Z,9.95
2023-04-18T22:53:19.705Z,9.90
2023-04-18T22:58:21.545Z,9.86
2023-04-18T23:03:23.698Z,9.86
2023-04-18T23:08:25.774Z,9.76
2023-04-18T23:13:27.709Z,9.73
2023-04-18T23:18:29.920Z,9.69
2023-04-18T23:23:32.003Z,9.67
2023-04-18T23:28:33.933Z,9.69
2023-04-18T23:33:35.959Z,9.61
2023-04-18T23:38:37.960Z,9.61
2023-04-18T23:43:39.825Z,9.63
2023-04-18T23:48:42.004Z,9.58
2023-04-18T23:53:44.068Z,9.64
2023-04-18T23:58:46.020Z,9.57
